createdAt,value
2023-03-29T00:00:07.050Z,524.24
2023-03-29T00:00:17.023Z,524.35
2023-03-29T00:00:27.036Z,524.42
2023-03-29T00:00:37.062Z,524.43
2023-03-29T00:00:47.031Z,524.53
2023-03-29T00:00:57.024Z,524.55
2023-03-29T00:01:07.024Z,524.45
2023-03-29T00:01:35.708Z,524.48
2023-03-29T00:01:36.156Z,524.60
2023-03-29T00:01:38.034Z,524.61
2023-03-29T00:01:47.029Z,524.65
2023-03-29T00:01:57.068Z,524.73
2023-03-29T00:02:07.058Z,524.71
2023-03-29T00:02:17.042Z,524.58
2023-03-29T00:02:37.099Z,524.61
2023-03-29T00:02:47.132Z,524.76
2023-03-29T00:02:57.137Z,524.60
2023-03-29T00:03:07.137Z,524.57
2023-03-29T00:03:17.154Z,524.67
2023-03-29T00:03:27.090Z,524.69
2023-03-29T00:03:37.145Z,524.72
2023-03-29T00:03:47.136Z,524.63
2023-03-29T00:03:57.171Z,524.60
2023-03-29T00:04:07.139Z,524.67
2023-03-29T00:04:27.107Z,524.73
2023-03-29T00:04:37.099Z,524.78
2023-03-29T00:04:47.043Z,524.88
2023-03-29T00:04:57.051Z,524.96
2023-03-29T00:05:07.051Z,524.96
2023-03-29T00:05:17.052Z,524.94
2023-03-29T00:05:27.048Z,525.02
2023-03-29T00:05:37.046Z,524.83
2023-03-29T00:05:47.047Z,525.30
2023-03-29T00:06:07.076Z,525.05
2023-03-29T00:06:17.048Z,525.11
2023-03-29T00:06:27.052Z,525.17
2023-03-29T00:06:37.059Z,525.10
2023-03-29T00:06:47.064Z,525.18
2023-03-29T00:06:57.066Z,525.10
2023-03-29T00:07:17.076Z,525.09
2023-03-29T00:07:27.058Z,525.06
2023-03-29T00:07:37.083Z,525.20
2023-03-29T00:07:47.059Z,525.18
2023-03-29T00:07:57.065Z,525.28
2023-03-29T00:08:07.065Z,525.12
2023-03-29T00:08:17.062Z,524.98
2023-03-29T00:08:27.065Z,525.08
2023-03-29T00:08:37.063Z,525.06
2023-03-29T00:08:47.066Z,525.27
2023-03-29T00:08:57.065Z,525.23
2023-03-29T00:09:07.082Z,525.32
2023-03-29T00:09:17.063Z,525.34
2023-03-29T00:09:27.070Z,525.46
2023-03-29T00:09:37.067Z,525.40
2023-03-29T00:09:47.071Z,525.34
2023-03-29T00:09:57.080Z,525.30
2023-03-29T00:10:07.074Z,525.15
2023-03-29T00:10:17.067Z,525.18
2023-03-29T00:10:27.095Z,525.09
2023-03-29T00:10:37.076Z,525.16
2023-03-29T00:10:47.091Z,525.19
2023-03-29T00:10:57.089Z,525.14
2023-03-29T00:11:07.070Z,525.35
2023-03-29T00:11:17.078Z,525.44
2023-03-29T00:11:37.086Z,525.28
2023-03-29T00:11:47.078Z,525.33
2023-03-29T00:11:57.083Z,525.19
2023-03-29T00:12:07.098Z,525.24
2023-03-29T00:12:17.091Z,525.04
2023-03-29T00:12:27.080Z,525.31
2023-03-29T00:12:37.113Z,525.60
2023-03-29T00:12:47.086Z,525.45
2023-03-29T00:13:07.098Z,525.42
2023-03-29T00:13:17.095Z,525.59
2023-03-29T00:13:27.095Z,525.59
2023-03-29T00:13:37.108Z,525.67
2023-03-29T00:13:47.083Z,525.67
2023-03-29T00:13:57.096Z,525.74
2023-03-29T00:14:07.116Z,525.69
2023-03-29T00:14:17.112Z,525.91
2023-03-29T00:14:27.095Z,525.60
2023-03-29T00:14:37.099Z,525.51
2023-03-29T00:14:47.094Z,525.90
2023-03-29T00:14:57.126Z,525.79
2023-03-29T00:15:07.109Z,525.93
2023-03-29T00:15:17.099Z,525.86
2023-03-29T00:15:37.096Z,525.77
2023-03-29T00:15:47.120Z,525.63
2023-03-29T00:15:57.097Z,525.90
2023-03-29T00:16:07.098Z,525.88
2023-03-29T00:16:17.114Z,525.79
2023-03-29T00:16:27.117Z,525.79
2023-03-29T00:16:37.175Z,525.91
2023-03-29T00:16:57.189Z,525.94
2023-03-29T00:17:07.164Z,526.00
2023-03-29T00:17:17.130Z,526.00
2023-03-29T00:17:27.132Z,525.95
2023-03-29T00:17:37.135Z,525.97
2023-03-29T00:17:47.127Z,525.96
2023-03-29T00:17:57.162Z,525.96
2023-03-29T00:18:07.220Z,526.06
2023-03-29T00:18:27.106Z,526.10
2023-03-29T00:18:37.105Z,526.20
2023-03-29T00:18:47.105Z,526.26
2023-03-29T00:18:57.121Z,526.25
2023-03-29T00:19:07.118Z,526.18
2023-03-29T00:19:17.720Z,526.03
2023-03-29T00:19:37.106Z,526.03
2023-03-29T00:19:47.115Z,526.02
2023-03-29T00:19:57.125Z,526.06
2023-03-29T00:20:07.117Z,526.00
2023-03-29T00:20:17.121Z,526.11
2023-03-29T00:20:27.139Z,526.07
2023-03-29T00:20:37.115Z,526.17
2023-03-29T00:20:47.114Z,526.21
2023-03-29T00:21:07.126Z,526.10
2023-03-29T00:21:17.118Z,526.10
2023-03-29T00:21:27.108Z,526.12
2023-03-29T00:21:37.128Z,526.14
2023-03-29T00:21:47.128Z,526.08
2023-03-29T00:21:57.106Z,526.14
2023-03-29T00:22:07.114Z,525.99
2023-03-29T00:22:17.126Z,526.06
2023-03-29T00:22:27.119Z,526.11
2023-03-29T00:22:37.116Z,525.96
2023-03-29T00:22:47.121Z,526.09
2023-03-29T00:22:57.138Z,526.04
2023-03-29T00:23:07.135Z,526.13
2023-03-29T00:23:17.142Z,526.04
2023-03-29T00:23:27.180Z,525.99
2023-03-29T00:23:37.130Z,526.14
2023-03-29T00:23:47.125Z,526.14
2023-03-29T00:23:57.131Z,526.12
2023-03-29T00:24:07.129Z,526.11
2023-03-29T00:24:17.134Z,526.16
2023-03-29T00:24:27.138Z,526.20
2023-03-29T00:24:37.154Z,526.03
2023-03-29T00:24:47.131Z,526.02
2023-03-29T00:24:57.138Z,526.07
2023-03-29T00:25:07.149Z,526.12
2023-03-29T00:25:17.136Z,526.05
2023-03-29T00:25:27.145Z,526.10
2023-03-29T00:25:37.151Z,526.07
2023-03-29T00:25:47.138Z,526.09
2023-03-29T00:25:57.131Z,526.04
2023-03-29T00:26:08.125Z,526.03
2023-03-29T00:26:17.141Z,526.03
2023-03-29T00:26:37.139Z,526.02
2023-03-29T00:26:47.139Z,526.09
2023-03-29T00:26:57.140Z,526.10
2023-03-29T00:27:07.144Z,526.16
2023-03-29T00:27:17.154Z,526.07
2023-03-29T00:27:27.145Z,526.14
2023-03-29T00:27:37.139Z,526.19
2023-03-29T00:27:47.169Z,526.33
2023-03-29T00:27:57.151Z,526.33
2023-03-29T00:28:07.141Z,526.40
2023-03-29T00:28:27.162Z,526.53
2023-03-29T00:28:37.168Z,526.51
2023-03-29T00:28:47.207Z,526.66
2023-03-29T00:28:57.152Z,526.59
2023-03-29T00:29:07.151Z,526.78
2023-03-29T00:29:17.154Z,526.63
2023-03-29T00:29:27.152Z,526.76
2023-03-29T00:29:47.181Z,526.92
2023-03-29T00:29:57.158Z,526.85
2023-03-29T00:30:07.149Z,526.87
2023-03-29T00:30:17.161Z,526.86
2023-03-29T00:30:27.201Z,526.86
2023-03-29T00:30:37.165Z,526.80
2023-03-29T00:30:47.174Z,526.80
2023-03-29T00:30:57.196Z,526.83
2023-03-29T00:31:07.224Z,526.80
2023-03-29T00:31:17.238Z,526.77
2023-03-29T00:31:37.238Z,526.74
2023-03-29T00:31:47.198Z,526.85
2023-03-29T00:31:57.205Z,526.75
2023-03-29T00:32:07.167Z,526.71
2023-03-29T00:32:17.173Z,526.91
2023-03-29T00:32:27.223Z,526.87
2023-03-29T00:32:37.207Z,526.90
2023-03-29T00:32:47.242Z,527.01
2023-03-29T00:32:57.373Z,527.11
2023-03-29T00:33:07.207Z,526.95
2023-03-29T00:33:17.185Z,526.69
2023-03-29T00:33:27.172Z,527.07
2023-03-29T00:33:37.174Z,526.91
2023-03-29T00:33:47.185Z,526.76
2023-03-29T00:33:57.183Z,526.78
2023-03-29T00:34:07.181Z,526.68
2023-03-29T00:34:17.304Z,526.96
2023-03-29T00:34:27.174Z,526.99
2023-03-29T00:34:37.177Z,526.91
2023-03-29T00:34:47.188Z,527.23
2023-03-29T00:34:57.195Z,527.02
2023-03-29T00:35:07.183Z,527.19
2023-03-29T00:35:27.256Z,527.09
2023-03-29T00:35:37.211Z,527.00
2023-03-29T00:35:47.202Z,526.92
2023-03-29T00:35:57.231Z,527.00
2023-03-29T00:36:07.388Z,526.95
2023-03-29T00:36:17.198Z,526.95
2023-03-29T00:36:37.186Z,526.91
2023-03-29T00:36:47.196Z,526.97
2023-03-29T00:36:57.191Z,526.79
2023-03-29T00:37:07.185Z,526.87
2023-03-29T00:37:17.189Z,526.81
2023-03-29T00:37:27.192Z,526.91
2023-03-29T00:37:37.201Z,526.89
2023-03-29T00:37:47.273Z,526.78
2023-03-29T00:37:57.193Z,526.92
2023-03-29T00:38:07.199Z,526.81
2023-03-29T00:38:17.202Z,526.88
2023-03-29T00:38:27.200Z,526.94
2023-03-29T00:38:37.203Z,526.90
2023-03-29T00:38:47.240Z,526.89
2023-03-29T00:38:57.211Z,526.79
2023-03-29T00:39:07.212Z,526.92
2023-03-29T00:39:18.082Z,526.92
2023-03-29T00:39:27.218Z,526.89
2023-03-29T00:39:37.221Z,527.03
2023-03-29T00:39:47.205Z,526.99
2023-03-29T00:39:57.211Z,526.89
2023-03-29T00:40:07.206Z,527.10
2023-03-29T00:40:27.232Z,527.17
2023-03-29T00:40:37.220Z,527.05
2023-03-29T00:40:47.205Z,527.27
2023-03-29T00:40:57.208Z,527.24
2023-03-29T00:41:07.210Z,527.22
2023-03-29T00:41:17.223Z,527.34
2023-03-29T00:41:37.228Z,527.27
2023-03-29T00:41:47.214Z,527.34
2023-03-29T00:41:57.214Z,527.25
2023-03-29T00:42:07.218Z,527.27
2023-03-29T00:42:17.219Z,527.28
2023-03-29T00:42:27.214Z,527.36
2023-03-29T00:42:37.226Z,527.32
2023-03-29T00:42:47.229Z,527.30
2023-03-29T00:42:57.220Z,527.40
2023-03-29T00:43:07.265Z,527.41
2023-03-29T00:43:17.219Z,527.59
2023-03-29T00:43:27.249Z,527.54
2023-03-29T00:43:37.235Z,527.71
2023-03-29T00:43:47.221Z,527.61
2023-03-29T00:44:07.231Z,527.41
2023-03-29T00:44:18.083Z,527.44
2023-03-29T00:44:27.232Z,527.28
2023-03-29T00:44:37.287Z,527.33
2023-03-29T00:44:47.228Z,527.41
2023-03-29T00:44:57.234Z,527.29
2023-03-29T00:45:07.236Z,527.48
2023-03-29T00:45:27.255Z,527.31
2023-03-29T00:45:37.235Z,527.56
2023-03-29T00:45:47.246Z,527.30
2023-03-29T00:45:57.277Z,527.51
2023-03-29T00:46:07.252Z,527.32
2023-03-29T00:46:17.291Z,527.36
2023-03-29T00:46:37.254Z,527.34
2023-03-29T00:46:47.288Z,527.29
2023-03-29T00:46:57.248Z,527.34
2023-03-29T00:47:07.269Z,527.37
2023-03-29T00:47:17.283Z,527.25
2023-03-29T00:47:27.267Z,527.35
2023-03-29T00:47:37.295Z,527.40
2023-03-29T00:47:47.254Z,527.39
2023-03-29T00:47:57.570Z,527.45
2023-03-29T00:48:07.277Z,527.37
2023-03-29T00:48:17.267Z,527.49
2023-03-29T00:48:27.260Z,527.50
2023-03-29T00:48:37.251Z,527.71
2023-03-29T00:48:47.259Z,527.59
2023-03-29T00:48:57.254Z,527.75
2023-03-29T00:49:07.312Z,527.70
2023-03-29T00:49:18.077Z,527.77
2023-03-29T00:49:27.256Z,527.78
2023-03-29T00:49:37.257Z,527.85
2023-03-29T00:49:47.254Z,527.86
2023-03-29T00:49:57.256Z,528.00
2023-03-29T00:50:07.258Z,528.10
2023-03-29T00:50:27.280Z,528.28
2023-03-29T00:50:37.273Z,528.23
2023-03-29T00:50:47.261Z,528.10
2023-03-29T00:50:57.267Z,528.18
2023-03-29T00:51:09.837Z,528.23
2023-03-29T00:51:17.260Z,528.23
2023-03-29T00:51:37.272Z,528.36
2023-03-29T00:51:47.266Z,528.24
2023-03-29T00:51:57.266Z,528.30
2023-03-29T00:52:07.275Z,528.51
2023-03-29T00:52:17.263Z,528.48
2023-03-29T00:52:27.271Z,528.16
2023-03-29T00:52:37.286Z,528.28
2023-03-29T00:52:47.275Z,528.41
2023-03-29T00:52:57.282Z,528.36
2023-03-29T00:53:07.346Z,528.40
2023-03-29T00:53:17.288Z,528.68
2023-03-29T00:53:27.287Z,528.74
2023-03-29T00:53:37.279Z,528.61
2023-03-29T00:53:57.283Z,528.64
2023-03-29T00:54:07.285Z,528.73
2023-03-29T00:54:18.077Z,528.87
2023-03-29T00:54:27.318Z,528.93
2023-03-29T00:54:37.288Z,528.85
2023-03-29T00:54:47.287Z,528.92
2023-03-29T00:54:57.288Z,528.87
2023-03-29T00:55:07.305Z,529.05
2023-03-29T00:55:27.301Z,529.20
2023-03-29T00:55:37.340Z,529.41
2023-03-29T00:55:47.291Z,529.27
2023-03-29T00:55:57.308Z,529.53
2023-03-29T00:56:07.312Z,529.50
2023-03-29T00:56:17.288Z,529.50
2023-03-29T00:56:27.297Z,529.49
2023-03-29T00:56:37.403Z,529.65
2023-03-29T00:56:47.339Z,529.72
2023-03-29T00:56:57.364Z,529.83
2023-03-29T00:57:17.304Z,529.91
2023-03-29T00:57:27.759Z,530.01
2023-03-29T00:57:37.287Z,529.93
2023-03-29T00:57:47.287Z,529.88
2023-03-29T00:57:57.299Z,529.94
2023-03-29T00:58:07.314Z,529.89
2023-03-29T00:58:17.293Z,529.90
2023-03-29T00:58:27.303Z,529.82
2023-03-29T00:58:37.292Z,529.71
2023-03-29T00:58:47.294Z,529.74
2023-03-29T00:58:57.334Z,529.59
2023-03-29T00:59:17.342Z,529.55
2023-03-29T00:59:27.304Z,529.43
2023-03-29T00:59:37.300Z,529.73
2023-03-29T00:59:47.299Z,529.59
2023-03-29T00:59:57.318Z,529.31
2023-03-29T01:00:07.306Z,529.45
2023-03-29T01:00:27.317Z,529.57
2023-03-29T01:00:37.303Z,529.44
2023-03-29T01:00:47.301Z,529.25
2023-03-29T01:00:57.309Z,529.78
2023-03-29T01:01:07.303Z,529.54
2023-03-29T01:01:17.317Z,529.66
2023-03-29T01:01:37.324Z,529.54
2023-03-29T01:01:47.320Z,529.38
2023-03-29T01:01:57.402Z,529.35
2023-03-29T01:02:07.440Z,529.56
2023-03-29T01:02:17.384Z,529.75
2023-03-29T01:02:27.394Z,529.43
2023-03-29T01:02:37.356Z,529.40
2023-03-29T01:02:47.373Z,529.51
2023-03-29T01:02:57.433Z,529.43
2023-03-29T01:03:17.434Z,529.67
2023-03-29T01:03:27.477Z,529.58
2023-03-29T01:03:37.435Z,529.62
2023-03-29T01:03:47.387Z,529.57
2023-03-29T01:03:57.357Z,529.73
2023-03-29T01:04:07.358Z,529.86
2023-03-29T01:04:17.339Z,529.79
2023-03-29T01:04:37.324Z,530.13
2023-03-29T01:04:47.320Z,530.18
2023-03-29T01:04:57.339Z,530.26
2023-03-29T01:05:07.325Z,530.25
2023-03-29T01:05:17.325Z,529.97
2023-03-29T01:05:27.365Z,530.12
2023-03-29T01:05:37.330Z,530.21
2023-03-29T01:05:47.346Z,530.13
2023-03-29T01:06:07.338Z,530.41
2023-03-29T01:06:17.330Z,530.30
2023-03-29T01:06:27.413Z,530.26
2023-03-29T01:06:37.480Z,530.40
2023-03-29T01:06:47.437Z,530.39
2023-03-29T01:06:57.478Z,530.30
2023-03-29T01:07:07.447Z,530.18
2023-03-29T01:07:17.350Z,530.38
2023-03-29T01:07:27.340Z,530.24
2023-03-29T01:07:37.346Z,530.33
2023-03-29T01:07:47.343Z,530.34
2023-03-29T01:07:57.359Z,530.32
2023-03-29T01:08:07.369Z,530.45
2023-03-29T01:08:17.352Z,530.49
2023-03-29T01:08:27.357Z,530.49
2023-03-29T01:08:37.376Z,530.48
2023-03-29T01:08:47.347Z,530.47
2023-03-29T01:08:57.362Z,530.51
2023-03-29T01:09:07.346Z,531.01
2023-03-29T01:09:17.345Z,530.64
2023-03-29T01:09:37.354Z,530.68
2023-03-29T01:09:47.350Z,530.80
2023-03-29T01:09:57.354Z,530.75
2023-03-29T01:10:07.351Z,530.60
2023-03-29T01:10:17.363Z,530.61
2023-03-29T01:10:27.402Z,530.67
2023-03-29T01:10:37.352Z,530.80
2023-03-29T01:10:47.363Z,530.82
2023-03-29T01:10:57.354Z,530.89
2023-03-29T01:11:07.355Z,530.77
2023-03-29T01:11:17.367Z,530.84
2023-03-29T01:11:37.368Z,531.03
2023-03-29T01:11:47.369Z,530.70
2023-03-29T01:11:57.376Z,530.97
2023-03-29T01:12:07.364Z,531.07
2023-03-29T01:12:17.375Z,531.00
2023-03-29T01:12:27.386Z,530.95
2023-03-29T01:12:37.362Z,531.03
2023-03-29T01:12:47.365Z,530.99
2023-03-29T01:12:57.370Z,531.06
2023-03-29T01:13:07.361Z,530.99
2023-03-29T01:13:17.380Z,531.30
2023-03-29T01:13:27.380Z,531.32
2023-03-29T01:13:37.371Z,531.25
2023-03-29T01:13:47.366Z,531.81
2023-03-29T01:13:57.380Z,531.14
2023-03-29T01:14:07.373Z,531.36
2023-03-29T01:14:27.390Z,531.52
2023-03-29T01:14:37.370Z,531.25
2023-03-29T01:14:47.379Z,531.25
2023-03-29T01:14:57.390Z,531.26
2023-03-29T01:15:07.368Z,531.18
2023-03-29T01:15:17.393Z,531.08
2023-03-29T01:15:27.422Z,531.14
2023-03-29T01:15:37.505Z,531.16
2023-03-29T01:15:47.379Z,531.15
2023-03-29T01:15:57.409Z,531.10
2023-03-29T01:16:07.431Z,530.99
2023-03-29T01:16:17.407Z,530.93
2023-03-29T01:16:37.442Z,531.11
2023-03-29T01:16:47.431Z,531.04
2023-03-29T01:16:57.382Z,531.12
2023-03-29T01:17:07.414Z,531.01
2023-03-29T01:17:17.396Z,531.10
2023-03-29T01:17:27.399Z,531.08
2023-03-29T01:17:37.463Z,531.30
2023-03-29T01:17:47.446Z,531.11
2023-03-29T01:17:57.418Z,531.29
2023-03-29T01:18:17.408Z,531.55
2023-03-29T01:18:27.398Z,531.47
2023-03-29T01:18:37.393Z,531.61
2023-03-29T01:18:47.414Z,531.63
2023-03-29T01:18:57.394Z,531.66
2023-03-29T01:19:07.397Z,531.69
2023-03-29T01:19:17.554Z,531.76
2023-03-29T01:19:37.399Z,532.00
2023-03-29T01:19:47.433Z,532.03
2023-03-29T01:19:57.399Z,532.02
2023-03-29T01:20:07.405Z,532.11
2023-03-29T01:20:17.431Z,532.18
2023-03-29T01:20:27.422Z,532.20
2023-03-29T01:20:37.452Z,532.32
2023-03-29T01:20:57.408Z,532.38
2023-03-29T01:21:07.410Z,532.53
2023-03-29T01:21:17.415Z,532.57
2023-03-29T01:21:27.408Z,532.54
2023-03-29T01:21:37.404Z,532.46
2023-03-29T01:21:47.408Z,532.46
2023-03-29T01:21:57.410Z,532.50
2023-03-29T01:22:07.412Z,532.57
2023-03-29T01:22:17.411Z,532.67
2023-03-29T01:22:27.411Z,532.67
2023-03-29T01:22:37.414Z,532.75
2023-03-29T01:22:47.422Z,532.82
2023-03-29T01:22:57.417Z,532.78
2023-03-29T01:23:07.435Z,532.67
2023-03-29T01:23:17.416Z,532.82
2023-03-29T01:23:27.457Z,532.79
2023-03-29T01:23:37.450Z,533.14
2023-03-29T01:23:47.453Z,532.93
2023-03-29T01:23:57.456Z,532.94
2023-03-29T01:24:07.424Z,532.95
2023-03-29T01:24:17.562Z,532.88
2023-03-29T01:24:27.429Z,532.76
2023-03-29T01:24:37.424Z,533.21
2023-03-29T01:24:47.442Z,533.05
2023-03-29T01:25:07.437Z,533.00
2023-03-29T01:25:17.437Z,533.08
2023-03-29T01:25:27.452Z,533.12
2023-03-29T01:25:37.429Z,533.01
2023-03-29T01:25:47.460Z,533.07
2023-03-29T01:25:57.434Z,533.04
2023-03-29T01:26:17.454Z,533.15
2023-03-29T01:26:27.449Z,533.10
2023-03-29T01:26:37.436Z,533.30
2023-03-29T01:26:47.435Z,533.06
2023-03-29T01:26:57.439Z,533.18
2023-03-29T01:27:07.435Z,533.21
2023-03-29T01:27:27.441Z,533.18
2023-03-29T01:27:37.454Z,533.20
2023-03-29T01:27:47.450Z,533.16
2023-03-29T01:27:57.443Z,533.36
2023-03-29T01:28:07.453Z,533.29
2023-03-29T01:28:17.442Z,533.22
2023-03-29T01:28:27.445Z,533.49
2023-03-29T01:28:47.459Z,533.35
2023-03-29T01:28:57.449Z,533.41
2023-03-29T01:29:07.443Z,533.23
2023-03-29T01:29:17.581Z,533.47
2023-03-29T01:29:27.450Z,533.43
2023-03-29T01:29:37.453Z,533.54
2023-03-29T01:29:47.458Z,533.66
2023-03-29T01:29:57.465Z,533.44
2023-03-29T01:30:07.468Z,533.56
2023-03-29T01:30:27.493Z,533.91
2023-03-29T01:30:37.482Z,533.70
2023-03-29T01:30:47.469Z,533.48
2023-03-29T01:30:57.453Z,533.44
2023-03-29T01:31:07.463Z,533.41
2023-03-29T01:31:17.475Z,533.75
2023-03-29T01:31:37.518Z,533.64
2023-03-29T01:31:47.481Z,533.67
2023-03-29T01:31:57.541Z,533.64
2023-03-29T01:32:07.541Z,533.43
2023-03-29T01:32:17.476Z,533.62
2023-03-29T01:32:27.559Z,533.72
2023-03-29T01:32:37.506Z,533.74
2023-03-29T01:32:47.559Z,533.78
2023-03-29T01:32:57.600Z,533.77
2023-03-29T01:33:17.499Z,533.75
2023-03-29T01:33:27.468Z,533.82
2023-03-29T01:33:37.477Z,533.95
2023-03-29T01:33:47.481Z,534.07
2023-03-29T01:33:57.476Z,534.07
2023-03-29T01:34:07.484Z,534.07
2023-03-29T01:34:18.096Z,534.34
2023-03-29T01:34:27.469Z,534.17
2023-03-29T01:34:37.470Z,534.20
2023-03-29T01:34:47.478Z,534.27
2023-03-29T01:34:57.482Z,534.40
2023-03-29T01:35:07.470Z,534.43
2023-03-29T01:35:27.486Z,534.61
2023-03-29T01:35:37.513Z,534.53
2023-03-29T01:35:47.504Z,534.61
2023-03-29T01:35:57.553Z,534.55
2023-03-29T01:36:07.530Z,534.64
2023-03-29T01:36:17.525Z,534.73
2023-03-29T01:36:37.473Z,534.79
2023-03-29T01:36:47.480Z,534.85
2023-03-29T01:36:57.482Z,534.98
2023-03-29T01:37:07.481Z,534.82
2023-03-29T01:37:17.505Z,535.01
2023-03-29T01:37:27.482Z,534.85
2023-03-29T01:37:37.489Z,534.87
2023-03-29T01:37:47.506Z,534.89
2023-03-29T01:37:57.486Z,534.89
2023-03-29T01:38:07.492Z,535.10
2023-03-29T01:38:27.488Z,534.80
2023-03-29T01:38:37.481Z,534.80
2023-03-29T01:38:47.491Z,534.98
2023-03-29T01:38:57.510Z,534.58
2023-03-29T01:39:07.496Z,534.93
2023-03-29T01:39:18.080Z,534.91
2023-03-29T01:39:27.492Z,534.89
2023-03-29T01:39:37.486Z,535.10
2023-03-29T01:39:47.539Z,534.79
2023-03-29T01:40:07.506Z,534.53
2023-03-29T01:40:17.498Z,534.72
2023-03-29T01:40:27.513Z,534.74
2023-03-29T01:40:37.490Z,534.69
2023-03-29T01:40:47.497Z,534.69
2023-03-29T01:40:57.503Z,534.84
2023-03-29T01:41:07.495Z,534.71
2023-03-29T01:41:17.499Z,534.73
2023-03-29T01:41:37.509Z,534.98
2023-03-29T01:41:47.501Z,534.92
2023-03-29T01:41:57.509Z,534.84
2023-03-29T01:42:07.502Z,534.81
2023-03-29T01:42:17.513Z,534.88
2023-03-29T01:42:27.502Z,534.91
2023-03-29T01:42:37.517Z,534.98
2023-03-29T01:42:47.499Z,534.85
2023-03-29T01:42:57.505Z,535.06
2023-03-29T01:43:07.517Z,535.14
2023-03-29T01:43:27.512Z,534.97
2023-03-29T01:43:37.602Z,534.83
2023-03-29T01:43:47.515Z,534.99
2023-03-29T01:43:57.508Z,534.92
2023-03-29T01:44:07.521Z,535.10
2023-03-29T01:44:18.082Z,535.05
2023-03-29T01:44:27.528Z,534.90
2023-03-29T01:44:47.559Z,534.96
2023-03-29T01:44:57.522Z,535.00
2023-03-29T01:45:07.529Z,534.98
2023-03-29T01:45:17.532Z,534.98
2023-03-29T01:45:27.541Z,535.02
2023-03-29T01:45:37.520Z,535.08
2023-03-29T01:45:47.543Z,535.15
2023-03-29T01:45:57.579Z,534.98
2023-03-29T01:46:17.542Z,535.10
2023-03-29T01:46:27.564Z,535.00
2023-03-29T01:46:37.580Z,534.97
2023-03-29T01:46:47.529Z,535.02
2023-03-29T01:46:57.526Z,534.96
2023-03-29T01:47:07.524Z,534.94
2023-03-29T01:47:17.527Z,535.09
2023-03-29T01:47:27.571Z,535.10
2023-03-29T01:47:37.561Z,535.14
2023-03-29T01:47:47.590Z,535.26
2023-03-29T01:47:57.608Z,535.27
2023-03-29T01:48:07.549Z,535.03
2023-03-29T01:48:17.532Z,535.18
2023-03-29T01:48:27.560Z,535.38
2023-03-29T01:48:37.556Z,535.34
2023-03-29T01:48:47.543Z,535.19
2023-03-29T01:48:57.548Z,535.26
2023-03-29T01:49:07.555Z,535.27
2023-03-29T01:49:18.097Z,535.31
2023-03-29T01:49:37.544Z,535.41
2023-03-29T01:49:47.541Z,535.57
2023-03-29T01:49:57.541Z,535.57
2023-03-29T01:50:07.551Z,535.58
2023-03-29T01:50:17.543Z,535.49
2023-03-29T01:50:27.614Z,535.52
2023-03-29T01:50:37.551Z,535.46
2023-03-29T01:50:47.548Z,535.48
2023-03-29T01:50:57.555Z,535.56
2023-03-29T01:51:07.572Z,535.54
2023-03-29T01:51:17.555Z,535.62
2023-03-29T01:51:37.558Z,535.75
2023-03-29T01:51:47.571Z,535.67
2023-03-29T01:51:57.550Z,535.70
2023-03-29T01:52:07.560Z,535.63
2023-03-29T01:52:17.551Z,535.76
2023-03-29T01:52:27.549Z,535.62
2023-03-29T01:52:37.557Z,535.73
2023-03-29T01:52:47.561Z,535.62
2023-03-29T01:52:57.734Z,535.74
2023-03-29T01:53:07.570Z,535.70
2023-03-29T01:53:17.558Z,535.68
2023-03-29T01:53:27.561Z,535.54
2023-03-29T01:53:37.594Z,535.64
2023-03-29T01:53:47.575Z,535.62
2023-03-29T01:53:57.563Z,535.78
2023-03-29T01:54:07.571Z,535.67
2023-03-29T01:54:17.583Z,535.70
2023-03-29T01:54:27.569Z,535.53
2023-03-29T01:54:37.587Z,535.59
2023-03-29T01:54:47.568Z,535.63
2023-03-29T01:54:57.568Z,535.37
2023-03-29T01:55:07.565Z,535.43
2023-03-29T01:55:27.582Z,535.78
2023-03-29T01:55:37.562Z,536.03
2023-03-29T01:55:47.565Z,535.83
2023-03-29T01:55:57.584Z,535.78
2023-03-29T01:56:07.574Z,535.67
2023-03-29T01:56:17.571Z,535.70
2023-03-29T01:56:37.611Z,535.93
2023-03-29T01:56:47.582Z,535.83
2023-03-29T01:56:57.637Z,535.87
2023-03-29T01:57:07.599Z,535.80
2023-03-29T01:57:17.629Z,536.11
2023-03-29T01:57:27.639Z,535.74
2023-03-29T01:57:37.595Z,535.87
2023-03-29T01:57:47.580Z,535.93
2023-03-29T01:57:57.586Z,535.86
2023-03-29T01:58:07.583Z,535.96
2023-03-29T01:58:17.585Z,535.84
2023-03-29T01:58:27.591Z,535.80
2023-03-29T01:58:47.593Z,535.77
2023-03-29T01:58:57.596Z,535.74
2023-03-29T01:59:07.589Z,535.77
2023-03-29T01:59:17.580Z,535.79
2023-03-29T01:59:27.597Z,535.83
2023-03-29T01:59:37.584Z,535.67
2023-03-29T01:59:57.620Z,535.99
2023-03-29T02:00:07.590Z,535.78
2023-03-29T02:00:17.596Z,535.84
2023-03-29T02:00:27.729Z,535.85
2023-03-29T02:00:37.590Z,535.88
2023-03-29T02:00:47.603Z,536.18
2023-03-29T02:00:57.694Z,536.00
2023-03-29T02:01:07.628Z,536.02
2023-03-29T02:01:17.735Z,536.08
2023-03-29T02:01:37.618Z,536.00
2023-03-29T02:01:47.636Z,536.18
2023-03-29T02:01:57.623Z,536.14
2023-03-29T02:02:07.630Z,536.07
2023-03-29T02:02:17.633Z,536.02
2023-03-29T02:02:27.691Z,536.08
2023-03-29T02:02:37.783Z,536.01
2023-03-29T02:02:47.674Z,536.11
2023-03-29T02:02:57.676Z,536.01
2023-03-29T02:03:07.755Z,536.10
2023-03-29T02:03:17.806Z,536.22
2023-03-29T02:03:27.677Z,536.13
2023-03-29T02:03:37.630Z,536.13
2023-03-29T02:03:47.642Z,536.11
2023-03-29T02:03:57.614Z,536.07
2023-03-29T02:04:07.616Z,536.14
2023-03-29T02:04:17.613Z,536.19
2023-03-29T02:04:27.613Z,536.18
2023-03-29T02:04:37.611Z,536.11
2023-03-29T02:04:47.616Z,536.26
2023-03-29T02:04:57.614Z,536.19
2023-03-29T02:05:07.627Z,536.17
2023-03-29T02:05:17.631Z,536.21
2023-03-29T02:05:27.645Z,536.16
2023-03-29T02:05:37.619Z,535.98
2023-03-29T02:05:57.621Z,536.30
2023-03-29T02:06:07.629Z,536.08
2023-03-29T02:06:17.618Z,536.14
2023-03-29T02:06:27.671Z,536.08
2023-03-29T02:06:37.619Z,536.25
2023-03-29T02:06:47.628Z,536.35
2023-03-29T02:06:57.625Z,536.27
2023-03-29T02:07:17.630Z,536.32
2023-03-29T02:07:27.638Z,536.45
2023-03-29T02:07:37.633Z,536.49
2023-03-29T02:07:47.629Z,536.44
2023-03-29T02:07:57.635Z,536.50
2023-03-29T02:08:07.642Z,536.51
2023-03-29T02:08:17.627Z,536.39
2023-03-29T02:08:27.650Z,536.31
2023-03-29T02:08:37.680Z,536.37
2023-03-29T02:08:47.643Z,536.37
2023-03-29T02:08:57.673Z,536.28
2023-03-29T02:09:07.638Z,536.33
2023-03-29T02:09:17.736Z,536.27
2023-03-29T02:09:27.649Z,536.50
2023-03-29T02:09:37.659Z,536.46
2023-03-29T02:09:47.641Z,536.37
2023-03-29T02:09:57.651Z,536.67
2023-03-29T02:10:07.641Z,536.64
2023-03-29T02:10:27.659Z,536.61
2023-03-29T02:10:37.645Z,536.68
2023-03-29T02:10:47.652Z,536.63
2023-03-29T02:10:57.684Z,536.52
2023-03-29T02:11:07.658Z,536.68
2023-03-29T02:11:17.662Z,536.65
2023-03-29T02:11:37.651Z,536.68
2023-03-29T02:11:47.649Z,536.64
2023-03-29T02:11:57.665Z,536.78
2023-03-29T02:12:07.649Z,536.72
2023-03-29T02:12:17.662Z,536.78
2023-03-29T02:12:27.663Z,536.86
2023-03-29T02:12:37.658Z,536.76
2023-03-29T02:12:47.652Z,536.64
2023-03-29T02:12:57.654Z,536.66
2023-03-29T02:13:17.662Z,536.70
2023-03-29T02:13:27.666Z,536.58
2023-03-29T02:13:37.671Z,536.67
2023-03-29T02:13:47.676Z,536.61
2023-03-29T02:13:57.692Z,536.59
2023-03-29T02:14:07.663Z,536.66
2023-03-29T02:14:18.596Z,536.59
2023-03-29T02:14:27.700Z,536.67
2023-03-29T02:14:47.666Z,536.69
2023-03-29T02:14:57.659Z,536.59
2023-03-29T02:15:07.685Z,536.78
2023-03-29T02:15:17.660Z,536.70
2023-03-29T02:15:27.695Z,536.74
2023-03-29T02:15:37.718Z,536.64
2023-03-29T02:15:47.687Z,536.63
2023-03-29T02:15:57.764Z,536.66
2023-03-29T02:16:07.711Z,536.65